sensor_id;sensor_type;location;lat;lon;timestamp;pressure;altitude;pressure_sealevel;temperature;humidity
51468;BME280;37545;45.302;-122.946;2022-07-05T00:02:01;100672.28;;;29.35;31.79
51468;BME280;37545;45.302;-122.946;2022-07-05T00:04:30;100671.56;;;29.31;33.88
51468;BME280;37545;45.302;-122.946;2022-07-05T00:07:05;100672.53;;;29.30;33.99
51468;BME280;37545;45.302;-122.946;2022-07-05T00:09:49;100675.03;;;29.33;35.10
51468;BME280;37545;45.302;-122.946;2022-07-05T00:12:18;100676.91;;;29.31;33.78
51468;BME280;37545;45.302;-122.946;2022-07-05T00:14:48;100677.91;;;29.29;33.23
51468;BME280;37545;45.302;-122.946;2022-07-05T00:17:17;100662.78;;;29.12;31.89
51468;BME280;37545;45.302;-122.946;2022-07-05T00:19:46;100669.84;;;28.94;32.71
51468;BME280;37545;45.302;-122.946;2022-07-05T00:22:14;100659.41;;;28.89;35.55
51468;BME280;37545;45.302;-122.946;2022-07-05T00:24:43;100665.44;;;28.74;32.52
51468;BME280;37545;45.302;-122.946;2022-07-05T00:27:13;100661.94;;;28.54;33.68
51468;BME280;37545;45.302;-122.946;2022-07-05T00:29:41;100654.69;;;28.37;32.13
51468;BME280;37545;45.302;-122.946;2022-07-05T00:32:10;100667.84;;;28.22;32.13
51468;BME280;37545;45.302;-122.946;2022-07-05T00:34:39;100661.09;;;27.94;32.22
51468;BME280;37545;45.302;-122.946;2022-07-05T00:37:07;100653.13;;;27.94;32.76
51468;BME280;37545;45.302;-122.946;2022-07-05T00:39:36;100659.38;;;27.93;33.79
51468;BME280;37545;45.302;-122.946;2022-07-05T00:42:04;100658.03;;;27.83;32.92
51468;BME280;37545;45.302;-122.946;2022-07-05T00:44:36;100662.81;;;27.74;33.58
51468;BME280;37545;45.302;-122.946;2022-07-05T00:47:06;100658.56;;;27.50;32.13
51468;BME280;37545;45.302;-122.946;2022-07-05T00:49:36;100651.72;;;27.44;33.37
51468;BME280;37545;45.302;-122.946;2022-07-05T00:52:08;100665.06;;;27.63;35.63
51468;BME280;37545;45.302;-122.946;2022-07-05T00:54:39;100661.03;;;27.75;36.01
51468;BME280;37545;45.302;-122.946;2022-07-05T00:57:08;100662.38;;;27.85;35.30
51468;BME280;37545;45.302;-122.946;2022-07-05T00:59:40;100651.69;;;27.87;36.22
51468;BME280;37545;45.302;-122.946;2022-07-05T01:02:09;100651.72;;;27.85;34.35
51468;BME280;37545;45.302;-122.946;2022-07-05T01:04:38;100647.09;;;27.90;33.79
51468;BME280;37545;45.302;-122.946;2022-07-05T01:07:07;100651.41;;;27.93;35.60
51468;BME280;37545;45.302;-122.946;2022-07-05T01:09:35;100640.84;;;27.91;33.76
51468;BME280;37545;45.302;-122.946;2022-07-05T01:12:04;100649.66;;;27.92;32.88
51468;BME280;37545;45.302;-122.946;2022-07-05T01:14:33;100640.75;;;27.72;32.76
51468;BME280;37545;45.302;-122.946;2022-07-05T01:17:03;100638.09;;;27.72;34.25
51468;BME280;37545;45.302;-122.946;2022-07-05T01:19:32;100635.34;;;27.74;33.46
51468;BME280;37545;45.302;-122.946;2022-07-05T01:22:02;100632.78;;;27.72;33.54
51468;BME280;37545;45.302;-122.946;2022-07-05T01:24:33;100632.97;;;27.68;34.37
51468;BME280;37545;45.302;-122.946;2022-07-05T01:27:01;100628.66;;;27.45;33.98
51468;BME280;37545;45.302;-122.946;2022-07-05T01:29:30;100627.06;;;27.41;34.56
51468;BME280;37545;45.302;-122.946;2022-07-05T01:31:59;100627.06;;;27.41;33.94
51468;BME280;37545;45.302;-122.946;2022-07-05T01:34:27;100625.22;;;27.43;35.40
51468;BME280;37545;45.302;-122.946;2022-07-05T01:36:56;100619.63;;;27.49;36.38
51468;BME280;37545;45.302;-122.946;2022-07-05T01:39:24;100619.28;;;27.36;33.59
51468;BME280;37545;45.302;-122.946;2022-07-05T01:41:54;100615.06;;;27.30;34.81
51468;BME280;37545;45.302;-122.946;2022-07-05T01:44:23;100622.47;;;27.24;34.06
51468;BME280;37545;45.302;-122.946;2022-07-05T01:46:55;100623.13;;;27.07;34.34
51468;BME280;37545;45.302;-122.946;2022-07-05T01:49:28;100622.78;;;26.94;34.29
51468;BME280;37545;45.302;-122.946;2022-07-05T01:52:01;100624.63;;;26.92;34.43
51468;BME280;37545;45.302;-122.946;2022-07-05T01:54:30;100616.56;;;26.93;35.31
51468;BME280;37545;45.302;-122.946;2022-07-05T01:57:00;100623.50;;;26.98;35.28
51468;BME280;37545;45.302;-122.946;2022-07-05T01:59:31;100624.31;;;27.00;34.95
51468;BME280;37545;45.302;-122.946;2022-07-05T02:01:59;100630.94;;;26.89;34.34
51468;BME280;37545;45.302;-122.946;2022-07-05T02:04:29;100624.38;;;26.76;34.26
51468;BME280;37545;45.302;-122.946;2022-07-05T02:06:57;100629.34;;;26.62;34.43
51468;BME280;37545;45.302;-122.946;2022-07-05T02:09:26;100635.91;;;26.51;34.88
51468;BME280;37545;45.302;-122.946;2022-07-05T02:11:54;100621.97;;;26.46;34.82
51468;BME280;37545;45.302;-122.946;2022-07-05T02:14:24;100622.06;;;26.43;35.17
51468;BME280;37545;45.302;-122.946;2022-07-05T02:16:53;100618.50;;;26.44;35.84
51468;BME280;37545;45.302;-122.946;2022-07-05T02:19:21;100616.75;;;26.43;34.64
51468;BME280;37545;45.302;-122.946;2022-07-05T02:21:50;100615.03;;;26.42;35.32
51468;BME280;37545;45.302;-122.946;2022-07-05T02:24:19;100618.50;;;26.44;35.91
51468;BME280;37545;45.302;-122.946;2022-07-05T02:26:48;100627.38;;;26.43;34.91
51468;BME280;37545;45.302;-122.946;2022-07-05T02:29:17;100631.09;;;26.39;35.23
51468;BME280;37545;45.302;-122.946;2022-07-05T02:31:47;100630.38;;;26.34;35.61
51468;BME280;37545;45.302;-122.946;2022-07-05T02:34:16;100631.31;;;26.33;36.38
51468;BME280;37545;45.302;-122.946;2022-07-05T02:36:44;100628.53;;;26.36;36.92
51468;BME280;37545;45.302;-122.946;2022-07-05T02:39:13;100633.84;;;26.36;36.86
51468;BME280;37545;45.302;-122.946;2022-07-05T02:41:41;100632.94;;;26.37;37.35
51468;BME280;37545;45.302;-122.946;2022-07-05T02:44:10;100628.63;;;26.35;36.80
51468;BME280;37545;45.302;-122.946;2022-07-05T02:46:38;100627.84;;;26.31;37.32
51468;BME280;37545;45.302;-122.946;2022-07-05T02:49:08;100628.06;;;26.25;37.50
51468;BME280;37545;45.302;-122.946;2022-07-05T02:51:37;100636.28;;;26.19;37.09
51468;BME280;37545;45.302;-122.946;2022-07-05T02:54:06;100625.22;;;26.07;37.26
51468;BME280;37545;45.302;-122.946;2022-07-05T02:56:34;100634.19;;;26.03;38.88
51468;BME280;37545;45.302;-122.946;2022-07-05T02:59:03;100634.41;;;25.97;37.91
51468;BME280;37545;45.302;-122.946;2022-07-05T03:01:32;100640.75;;;25.93;37.81
51468;BME280;37545;45.302;-122.946;2022-07-05T03:04:00;100632.28;;;25.82;37.99
51468;BME280;37545;45.302;-122.946;2022-07-05T03:06:30;100636.66;;;25.83;38.82
51468;BME280;37545;45.302;-122.946;2022-07-05T03:08:59;100639.59;;;25.75;39.10
51468;BME280;37545;45.302;-122.946;2022-07-05T03:11:27;100648.69;;;25.68;39.57
51468;BME280;37545;45.302;-122.946;2022-07-05T03:13:56;100646.28;;;25.60;39.10
51468;BME280;37545;45.302;-122.946;2022-07-05T03:16:24;100647.41;;;25.53;39.12
51468;BME280;37545;45.302;-122.946;2022-07-05T03:18:53;100646.81;;;25.45;39.03
51468;BME280;37545;45.302;-122.946;2022-07-05T03:21:21;100654.16;;;25.37;40.09
51468;BME280;37545;45.302;-122.946;2022-07-05T03:23:51;100658.94;;;25.25;39.28
51468;BME280;37545;45.302;-122.946;2022-07-05T03:26:20;100658.28;;;25.19;39.29
51468;BME280;37545;45.302;-122.946;2022-07-05T03:28:48;100652.34;;;25.11;39.59
51468;BME280;37545;45.302;-122.946;2022-07-05T03:31:17;100658.69;;;25.05;40.04
51468;BME280;37545;45.302;-122.946;2022-07-05T03:33:46;100646.69;;;24.95;39.94
51468;BME280;37545;45.302;-122.946;2022-07-05T03:36:14;100653.97;;;24.86;40.52
51468;BME280;37545;45.302;-122.946;2022-07-05T03:38:42;100658.59;;;24.80;41.33
51468;BME280;37545;45.302;-122.946;2022-07-05T03:41:13;100657.91;;;24.73;40.93
51468;BME280;37545;45.302;-122.946;2022-07-05T03:43:41;100656.38;;;24.66;40.39
51468;BME280;37545;45.302;-122.946;2022-07-05T03:46:10;100653.06;;;24.58;40.34
51468;BME280;37545;45.302;-122.946;2022-07-05T03:48:38;100650.72;;;24.49;39.70
51468;BME280;37545;45.302;-122.946;2022-07-05T03:51:07;100660.66;;;24.39;40.36
51468;BME280;37545;45.302;-122.946;2022-07-05T03:53:35;100659.16;;;24.30;41.19
51468;BME280;37545;45.302;-122.946;2022-07-05T03:56:04;100655.88;;;24.22;40.68
51468;BME280;37545;45.302;-122.946;2022-07-05T03:58:34;100653.53;;;24.11;41.63
51468;BME280;37545;45.302;-122.946;2022-07-05T04:01:03;100656.41;;;24.03;41.21
51468;BME280;37545;45.302;-122.946;2022-07-05T04:03:31;100651.38;;;23.94;42.34
51468;BME280;37545;45.302;-122.946;2022-07-05T04:05:59;100662.22;;;23.83;44.19
51468;BME280;37545;45.302;-122.946;2022-07-05T04:08:28;100657.19;;;23.73;46.15
51468;BME280;37545;45.302;-122.946;2022-07-05T04:10:56;100655.72;;;23.62;45.27
51468;BME280;37545;45.302;-122.946;2022-07-05T04:13:25;100663.03;;;23.51;46.67
51468;BME280;37545;45.302;-122.946;2022-07-05T04:15:55;100665.00;;;23.43;47.41
51468;BME280;37545;45.302;-122.946;2022-07-05T04:18:24;100674.88;;;23.35;46.51
51468;BME280;37545;45.302;-122.946;2022-07-05T04:20:52;100670.69;;;23.26;46.40
51468;BME280;37545;45.302;-122.946;2022-07-05T04:23:21;100667.41;;;23.16;46.81
51468;BME280;37545;45.302;-122.946;2022-07-05T04:25:49;100677.25;;;23.10;47.57
51468;BME280;37545;45.302;-122.946;2022-07-05T04:28:18;100680.97;;;23.01;48.82
51468;BME280;37545;45.302;-122.946;2022-07-05T04:30:47;100690.78;;;22.93;49.76
51468;BME280;37545;45.302;-122.946;2022-07-05T04:33:17;100689.28;;;22.83;51.89
51468;BME280;37545;45.302;-122.946;2022-07-05T04:35:45;100692.03;;;22.76;51.40
51468;BME280;37545;45.302;-122.946;2022-07-05T04:38:14;100700.16;;;22.67;49.23
51468;BME280;37545;45.302;-122.946;2022-07-05T04:40:42;100698.53;;;22.60;48.66
51468;BME280;37545;45.302;-122.946;2022-07-05T04:43:11;100702.19;;;22.54;48.60
51468;BME280;37545;45.302;-122.946;2022-07-05T04:45:39;100703.16;;;22.49;49.01
51468;BME280;37545;45.302;-122.946;2022-07-05T04:48:08;100704.19;;;22.43;48.06
51468;BME280;37545;45.302;-122.946;2022-07-05T04:50:38;100709.59;;;22.35;47.90
51468;BME280;37545;45.302;-122.946;2022-07-05T04:53:06;100707.94;;;22.30;48.03
51468;BME280;37545;45.302;-122.946;2022-07-05T04:55:36;100711.59;;;22.24;47.86
51468;BME280;37545;45.302;-122.946;2022-07-05T04:58:04;100707.28;;;22.17;47.86
51468;BME280;37545;45.302;-122.946;2022-07-05T05:00:33;100715.31;;;22.11;47.90
51468;BME280;37545;45.302;-122.946;2022-07-05T05:03:02;100714.56;;;22.04;48.76
51468;BME280;37545;45.302;-122.946;2022-07-05T05:05:30;100719.06;;;21.99;49.48
51468;BME280;37545;45.302;-122.946;2022-07-05T05:08:01;100719.13;;;21.94;49.37
51468;BME280;37545;45.302;-122.946;2022-07-05T05:10:29;100714.84;;;21.89;49.25
51468;BME280;37545;45.302;-122.946;2022-07-05T05:12:58;100713.16;;;21.85;49.04
51468;BME280;37545;45.302;-122.946;2022-07-05T05:15:26;100722.03;;;21.79;48.79
51468;BME280;37545;45.302;-122.946;2022-07-05T05:17:54;100721.25;;;21.74;48.95
51468;BME280;37545;45.302;-122.946;2022-07-05T05:20:23;100723.97;;;21.69;48.74
51468;BME280;37545;45.302;-122.946;2022-07-05T05:22:51;100721.41;;;21.65;48.94
51468;BME280;37545;45.302;-122.946;2022-07-05T05:25:22;100716.22;;;21.59;48.95
51468;BME280;37545;45.302;-122.946;2022-07-05T05:27:51;100725.06;;;21.54;49.05
51468;BME280;37545;45.302;-122.946;2022-07-05T05:30:20;100719.91;;;21.48;48.82
51468;BME280;37545;45.302;-122.946;2022-07-05T05:32:48;100721.75;;;21.43;48.75
51468;BME280;37545;45.302;-122.946;2022-07-05T05:35:17;100715.66;;;21.37;48.80
51468;BME280;37545;45.302;-122.946;2022-07-05T05:37:48;100718.38;;;21.32;49.13
51468;BME280;37545;45.302;-122.946;2022-07-05T05:40:17;100723.75;;;21.26;49.27
51468;BME280;37545;45.302;-122.946;2022-07-05T05:42:47;100723.81;;;21.21;49.51
51468;BME280;37545;45.302;-122.946;2022-07-05T05:45:16;100729.16;;;21.17;49.50
51468;BME280;37545;45.302;-122.946;2022-07-05T05:47:47;100723.06;;;21.11;49.69
51468;BME280;37545;45.302;-122.946;2022-07-05T05:50:19;100722.25;;;21.08;49.82
51468;BME280;37545;45.302;-122.946;2022-07-05T05:52:48;100722.31;;;21.03;50.12
51468;BME280;37545;45.302;-122.946;2022-07-05T05:55:16;100720.63;;;20.99;50.56
51468;BME280;37545;45.302;-122.946;2022-07-05T05:57:47;100720.69;;;20.93;50.53
51468;BME280;37545;45.302;-122.946;2022-07-05T06:00:16;100714.63;;;20.88;50.48
51468;BME280;37545;45.302;-122.946;2022-07-05T06:02:47;100716.47;;;20.83;50.94
51468;BME280;37545;45.302;-122.946;2022-07-05T06:05:16;100721.78;;;20.77;50.90
51468;BME280;37545;45.302;-122.946;2022-07-05T06:07:46;100728.03;;;20.69;51.88
51468;BME280;37545;45.302;-122.946;2022-07-05T06:10:17;100726.38;;;20.62;53.00
51468;BME280;37545;45.302;-122.946;2022-07-05T06:12:48;100732.56;;;20.55;52.18
51468;BME280;37545;45.302;-122.946;2022-07-05T06:15:16;100717.72;;;20.51;53.05
51468;BME280;37545;45.302;-122.946;2022-07-05T06:17:45;100729.13;;;20.48;53.47
51468;BME280;37545;45.302;-122.946;2022-07-05T06:20:15;100723.00;;;20.46;53.28
51468;BME280;37545;45.302;-122.946;2022-07-05T06:22:44;100724.78;;;20.43;53.66
51468;BME280;37545;45.302;-122.946;2022-07-05T06:25:13;100732.72;;;20.38;53.03
51468;BME280;37545;45.302;-122.946;2022-07-05T06:27:41;100721.41;;;20.35;53.44
51468;BME280;37545;45.302;-122.946;2022-07-05T06:30:14;100721.41;;;20.32;53.22
51468;BME280;37545;45.302;-122.946;2022-07-05T06:32:43;100721.47;;;20.27;53.34
51468;BME280;37545;45.302;-122.946;2022-07-05T06:35:13;100721.53;;;20.22;53.40
51468;BME280;37545;45.302;-122.946;2022-07-05T06:37:42;100727.69;;;20.20;52.87
51468;BME280;37545;45.302;-122.946;2022-07-05T06:40:12;100725.97;;;20.17;53.07
51468;BME280;37545;45.302;-122.946;2022-07-05T06:42:40;100723.34;;;20.16;53.26
51468;BME280;37545;45.302;-122.946;2022-07-05T06:45:11;100729.53;;;20.12;54.22
51468;BME280;37545;45.302;-122.946;2022-07-05T06:47:40;100728.72;;;20.05;54.06
51468;BME280;37545;45.302;-122.946;2022-07-05T06:50:09;100725.28;;;19.97;54.47
51468;BME280;37545;45.302;-122.946;2022-07-05T06:52:38;100716.59;;;19.92;54.40
51468;BME280;37545;45.302;-122.946;2022-07-05T06:55:08;100718.34;;;19.90;53.72
51468;BME280;37545;45.302;-122.946;2022-07-05T06:57:36;100717.53;;;19.86;52.84
51468;BME280;37545;45.302;-122.946;2022-07-05T07:00:06;100723.66;;;19.83;53.81
51468;BME280;37545;45.302;-122.946;2022-07-05T07:02:36;100723.69;;;19.79;53.75
51468;BME280;37545;45.302;-122.946;2022-07-05T07:05:05;100722.88;;;19.74;53.48
51468;BME280;37545;45.302;-122.946;2022-07-05T07:07:35;100721.16;;;19.71;52.56
51468;BME280;37545;45.302;-122.946;2022-07-05T07:10:20;100723.78;;;19.68;52.89
51468;BME280;37545;45.302;-122.946;2022-07-05T07:12:48;100715.91;;;19.65;52.70
51468;BME280;37545;45.302;-122.946;2022-07-05T07:15:17;100715.06;;;19.66;52.42
51468;BME280;37545;45.302;-122.946;2022-07-05T07:17:47;100711.53;;;19.67;51.77
51468;BME280;37545;45.302;-122.946;2022-07-05T07:20:16;100715.06;;;19.66;52.20
51468;BME280;37545;45.302;-122.946;2022-07-05T07:22:44;100714.19;;;19.64;52.46
51468;BME280;37545;45.302;-122.946;2022-07-05T07:25:13;100714.22;;;19.61;52.39
51468;BME280;37545;45.302;-122.946;2022-07-05T07:27:42;100716.84;;;19.58;52.85
51468;BME280;37545;45.302;-122.946;2022-07-05T07:30:12;100716.88;;;19.55;52.96
51468;BME280;37545;45.302;-122.946;2022-07-05T07:32:41;100705.53;;;19.54;53.11
51468;BME280;37545;45.302;-122.946;2022-07-05T07:35:12;100711.69;;;19.52;53.90
51468;BME280;37545;45.302;-122.946;2022-07-05T07:37:41;100715.19;;;19.48;53.64
51468;BME280;37545;45.302;-122.946;2022-07-05T07:40:10;100720.44;;;19.44;53.75
51468;BME280;37545;45.302;-122.946;2022-07-05T07:42:45;100716.13;;;19.39;53.50
51468;BME280;37545;45.302;-122.946;2022-07-05T07:45:13;100720.53;;;19.35;53.69
51468;BME280;37545;45.302;-122.946;2022-07-05T07:47:42;100716.16;;;19.33;54.54
51468;BME280;37545;45.302;-122.946;2022-07-05T07:50:12;100715.31;;;19.31;52.71
51468;BME280;37545;45.302;-122.946;2022-07-05T07:52:40;100717.97;;;19.29;53.51
51468;BME280;37545;45.302;-122.946;2022-07-05T07:55:14;100717.09;;;19.27;53.53
51468;BME280;37545;45.302;-122.946;2022-07-05T07:57:43;100714.47;;;19.27;53.53
51468;BME280;37545;45.302;-122.946;2022-07-05T08:00:12;100709.25;;;19.19;53.99
51468;BME280;37545;45.302;-122.946;2022-07-05T08:02:41;100724.13;;;19.22;53.55
51468;BME280;37545;45.302;-122.946;2022-07-05T08:05:11;100725.91;;;19.20;53.50
51468;BME280;37545;45.302;-122.946;2022-07-05T08:07:39;100731.13;;;19.17;53.98
51468;BME280;37545;45.302;-122.946;2022-07-05T08:10:09;100733.75;;;19.17;54.10
51468;BME280;37545;45.302;-122.946;2022-07-05T08:12:37;100736.41;;;19.15;54.81
51468;BME280;37545;45.302;-122.946;2022-07-05T08:15:07;100732.94;;;19.12;56.40
51468;BME280;37545;45.302;-122.946;2022-07-05T08:17:35;100732.06;;;19.11;56.24
51468;BME280;37545;45.302;-122.946;2022-07-05T08:20:26;100725.91;;;19.12;56.04
51468;BME280;37545;45.302;-122.946;2022-07-05T08:23:11;100717.16;;;19.15;58.22
51468;BME280;37545;45.302;-122.946;2022-07-05T08:25:40;100723.31;;;19.15;57.03
51468;BME280;37545;45.302;-122.946;2022-07-05T08:28:08;100721.53;;;19.14;56.30
51468;BME280;37545;45.302;-122.946;2022-07-05T08:30:37;100725.06;;;19.10;56.94
51468;BME280;37545;45.302;-122.946;2022-07-05T08:33:05;100718.94;;;19.11;56.03
51468;BME280;37545;45.302;-122.946;2022-07-05T08:35:35;100711.94;;;19.12;56.27
51468;BME280;37545;45.302;-122.946;2022-07-05T08:38:04;100718.94;;;19.13;58.20
51468;BME280;37545;45.302;-122.946;2022-07-05T08:40:37;100717.19;;;19.13;57.02
51468;BME280;37545;45.302;-122.946;2022-07-05T08:43:06;100710.19;;;19.14;58.92
51468;BME280;37545;45.302;-122.946;2022-07-05T08:45:37;100703.19;;;19.16;59.80
51468;BME280;37545;45.302;-122.946;2022-07-05T08:48:08;100709.28;;;19.16;59.93
51468;BME280;37545;45.302;-122.946;2022-07-05T08:50:40;100708.44;;;19.16;60.13
51468;BME280;37545;45.302;-122.946;2022-07-05T08:53:09;100708.44;;;19.16;58.03
51468;BME280;37545;45.302;-122.946;2022-07-05T08:55:38;100718.06;;;19.15;57.85
51468;BME280;37545;45.302;-122.946;2022-07-05T08:58:08;100718.91;;;19.16;58.02
51468;BME280;37545;45.302;-122.946;2022-07-05T09:00:37;100720.66;;;19.17;58.17
51468;BME280;37545;45.302;-122.946;2022-07-05T09:03:06;100722.41;;;19.18;58.27
51468;BME280;37545;45.302;-122.946;2022-07-05T09:05:39;100713.66;;;19.19;58.29
51468;BME280;37545;45.302;-122.946;2022-07-05T09:08:12;100710.16;;;19.20;58.59
51468;BME280;37545;45.302;-122.946;2022-07-05T09:10:43;100696.16;;;19.21;58.66
51468;BME280;37545;45.302;-122.946;2022-07-05T09:13:12;100694.41;;;19.20;59.64
51468;BME280;37545;45.302;-122.946;2022-07-05T09:15:40;100692.66;;;19.22;59.97
51468;BME280;37545;45.302;-122.946;2022-07-05T09:18:10;100696.16;;;19.19;59.45
51468;BME280;37545;45.302;-122.946;2022-07-05T09:20:40;100701.41;;;19.15;59.29
51468;BME280;37545;45.302;-122.946;2022-07-05T09:23:09;100704.06;;;19.10;61.04
51468;BME280;37545;45.302;-122.946;2022-07-05T09:25:42;100705.91;;;19.03;61.33
51468;BME280;37545;45.302;-122.946;2022-07-05T09:28:11;100710.28;;;19.01;60.72
51468;BME280;37545;45.302;-122.946;2022-07-05T09:30:40;100713.75;;;19.03;60.42
51468;BME280;37545;45.302;-122.946;2022-07-05T09:33:09;100711.13;;;19.02;63.40
51468;BME280;37545;45.302;-122.946;2022-07-05T09:35:41;100710.31;;;18.95;65.01
51468;BME280;37545;45.302;-122.946;2022-07-05T09:38:18;100700.69;;;18.91;65.14
51468;BME280;37545;45.302;-122.946;2022-07-05T09:40:47;100698.94;;;18.93;67.03
51468;BME280;37545;45.302;-122.946;2022-07-05T09:43:16;100699.84;;;18.92;65.91
51468;BME280;37545;45.302;-122.946;2022-07-05T09:45:56;100705.94;;;18.91;65.45
51468;BME280;37545;45.302;-122.946;2022-07-05T09:48:26;100705.06;;;18.89;65.73
51468;BME280;37545;45.302;-122.946;2022-07-05T09:51:05;100707.69;;;18.89;65.58
51468;BME280;37545;45.302;-122.946;2022-07-05T09:53:45;100705.94;;;18.91;66.19
51468;BME280;37545;45.302;-122.946;2022-07-05T09:56:13;100706.84;;;18.90;66.12
51468;BME280;37545;45.302;-122.946;2022-07-05T09:58:43;100701.59;;;18.90;66.62
51468;BME280;37545;45.302;-122.946;2022-07-05T10:01:27;100705.94;;;18.90;67.26
51468;BME280;37545;45.302;-122.946;2022-07-05T10:03:56;100702.47;;;18.89;68.17
51468;BME280;37545;45.302;-122.946;2022-07-05T10:06:27;100712.09;;;18.90;67.78
51468;BME280;37545;45.302;-122.946;2022-07-05T10:08:57;100711.22;;;18.88;67.82
51468;BME280;37545;45.302;-122.946;2022-07-05T10:11:26;100709.50;;;18.86;67.26
51468;BME280;37545;45.302;-122.946;2022-07-05T10:13:55;100718.22;;;18.84;68.77
51468;BME280;37545;45.302;-122.946;2022-07-05T10:16:23;100722.63;;;18.81;69.71
51468;BME280;37545;45.302;-122.946;2022-07-05T10:18:54;100713.00;;;18.74;70.04
51468;BME280;37545;45.302;-122.946;2022-07-05T10:21:26;100711.25;;;18.71;70.50
51468;BME280;37545;45.302;-122.946;2022-07-05T10:23:55;100720.88;;;18.71;70.81
51468;BME280;37545;45.302;-122.946;2022-07-05T10:26:25;100724.38;;;18.70;70.29
51468;BME280;37545;45.302;-122.946;2022-07-05T10:28:59;100722.63;;;18.69;70.06
51468;BME280;37545;45.302;-122.946;2022-07-05T10:31:29;100721.78;;;18.65;70.52
51468;BME280;37545;45.302;-122.946;2022-07-05T10:33:57;100726.19;;;18.60;71.00
51468;BME280;37545;45.302;-122.946;2022-07-05T10:36:35;100720.94;;;18.58;71.00
51468;BME280;37545;45.302;-122.946;2022-07-05T10:39:05;100725.28;;;18.59;70.87
51468;BME280;37545;45.302;-122.946;2022-07-05T10:41:34;100724.41;;;18.60;70.99
51468;BME280;37545;45.302;-122.946;2022-07-05T10:44:05;100731.38;;;18.61;71.00
51468;BME280;37545;45.302;-122.946;2022-07-05T10:46:37;100731.38;;;18.61;71.26
51468;BME280;37545;45.302;-122.946;2022-07-05T10:49:16;100729.63;;;18.63;71.29
51468;BME280;37545;45.302;-122.946;2022-07-05T10:51:47;100716.53;;;18.63;70.94
51468;BME280;37545;45.302;-122.946;2022-07-05T10:54:16;100711.28;;;18.63;72.09
51468;BME280;37545;45.302;-122.946;2022-07-05T10:57:21;100710.44;;;18.65;72.53
51468;BME280;37545;45.302;-122.946;2022-07-05T11:00:05;100710.44;;;18.63;71.68
51468;BME280;37545;45.302;-122.946;2022-07-05T11:02:34;100709.56;;;18.59;71.53
51468;BME280;37545;45.302;-122.946;2022-07-05T11:05:03;100706.97;;;18.52;70.75
51468;BME280;37545;45.302;-122.946;2022-07-05T11:08:00;100703.50;;;18.45;71.69
51468;BME280;37545;45.302;-122.946;2022-07-05T11:10:29;100706.13;;;18.45;70.36
51468;BME280;37545;45.302;-122.946;2022-07-05T11:12:59;100697.38;;;18.46;70.12
51468;BME280;37545;45.302;-122.946;2022-07-05T11:15:27;100690.41;;;18.47;69.54
51468;BME280;37545;45.302;-122.946;2022-07-05T11:18:16;100693.91;;;18.47;70.90
51468;BME280;37545;45.302;-122.946;2022-07-05T11:21:15;100705.25;;;18.46;70.54
51468;BME280;37545;45.302;-122.946;2022-07-05T11:23:46;100700.88;;;18.43;70.44
51468;BME280;37545;45.302;-122.946;2022-07-05T11:26:17;100700.94;;;18.37;71.80
51468;BME280;37545;45.302;-122.946;2022-07-05T11:28:47;100708.81;;;18.27;72.17
51468;BME280;37545;45.302;-122.946;2022-07-05T11:31:40;100710.56;;;18.25;73.68
51468;BME280;37545;45.302;-122.946;2022-07-05T11:34:13;100714.94;;;18.26;73.76
51468;BME280;37545;45.302;-122.946;2022-07-05T11:36:43;100712.31;;;18.26;73.10
51468;BME280;37545;45.302;-122.946;2022-07-05T11:39:14;100717.56;;;18.26;71.10
51468;BME280;37545;45.302;-122.946;2022-07-05T11:41:45;100707.94;;;18.25;69.64
51468;BME280;37545;45.302;-122.946;2022-07-05T11:44:15;100711.41;;;18.25;68.55
51468;BME280;37545;45.302;-122.946;2022-07-05T11:46:44;100701.84;;;18.23;67.32
51468;BME280;37545;45.302;-122.946;2022-07-05T11:49:19;100705.31;;;18.23;67.65
51468;BME280;37545;45.302;-122.946;2022-07-05T11:51:56;100707.06;;;18.23;67.72
51468;BME280;37545;45.302;-122.946;2022-07-05T11:54:28;100709.72;;;18.21;67.50
51468;BME280;37545;45.302;-122.946;2022-07-05T11:56:56;100713.19;;;18.18;67.80
51468;BME280;37545;45.302;-122.946;2022-07-05T11:59:25;100718.41;;;18.18;67.68
51468;BME280;37545;45.302;-122.946;2022-07-05T12:01:54;100718.44;;;18.17;68.01
51468;BME280;37545;45.302;-122.946;2022-07-05T12:04:24;100704.47;;;18.07;68.03
51468;BME280;37545;45.302;-122.946;2022-07-05T12:06:53;100721.94;;;18.14;68.93
51468;BME280;37545;45.302;-122.946;2022-07-05T12:09:27;100721.94;;;18.13;68.70
51468;BME280;37545;45.302;-122.946;2022-07-05T12:12:18;100720.19;;;18.12;69.09
51468;BME280;37545;45.302;-122.946;2022-07-05T12:15:00;100723.69;;;18.11;69.12
51468;BME280;37545;45.302;-122.946;2022-07-05T12:17:29;100724.56;;;18.08;68.97
51468;BME280;37545;45.302;-122.946;2022-07-05T12:19:57;100728.06;;;18.04;68.49
51468;BME280;37545;45.302;-122.946;2022-07-05T12:22:30;100724.59;;;18.00;68.88
51468;BME280;37545;45.302;-122.946;2022-07-05T12:25:00;100722.81;;;17.98;69.31
51468;BME280;37545;45.302;-122.946;2022-07-05T12:27:30;100721.09;;;17.97;69.11
51468;BME280;37545;45.302;-122.946;2022-07-05T12:29:59;100704.50;;;17.93;69.71
51468;BME280;37545;45.302;-122.946;2022-07-05T12:32:28;100705.41;;;17.92;69.48
51468;BME280;37545;45.302;-122.946;2022-07-05T12:34:57;100713.22;;;17.91;69.35
51468;BME280;37545;45.302;-122.946;2022-07-05T12:37:27;100706.25;;;17.88;69.48